createdAt,value
2018-02-17T00:00:53.430Z,1.00
2018-02-17T00:03:21.818Z,1.10
2018-02-17T00:05:51.024Z,1.10
2018-02-17T00:08:18.609Z,1.00
2018-02-17T00:10:46.196Z,1.00
2018-02-17T00:13:13.754Z,0.90
2018-02-17T00:15:41.311Z,0.70
2018-02-17T00:18:08.907Z,0.80
2018-02-17T00:20:36.448Z,0.80
2018-02-17T00:23:04.847Z,0.80
2018-02-17T00:25:32.466Z,0.80
2018-02-17T00:28:00.048Z,0.70
2018-02-17T00:30:27.612Z,0.80
2018-02-17T00:32:55.166Z,0.90
2018-02-17T00:35:22.743Z,0.90
2018-02-17T00:37:50.331Z,0.90
2018-02-17T00:40:19.453Z,0.90
2018-02-17T00:42:46.996Z,0.90
2018-02-17T00:45:14.598Z,0.90
2018-02-17T00:47:42.153Z,0.90
2018-02-17T00:50:09.726Z,0.80
2018-02-17T00:52:37.328Z,0.80
2018-02-17T00:55:04.916Z,0.80
2018-02-17T00:57:32.482Z,0.80
2018-02-17T01:00:00.321Z,0.80
2018-02-17T01:02:27.888Z,0.80
2018-02-17T01:04:56.313Z,0.80
2018-02-17T01:07:23.878Z,0.80
2018-02-17T01:09:51.476Z,0.90
2018-02-17T01:12:19.015Z,0.90
2018-02-17T01:14:46.602Z,0.90
2018-02-17T01:17:14.947Z,1.00
2018-02-17T01:19:42.595Z,1.00
2018-02-17T01:22:10.150Z,1.00
2018-02-17T01:24:37.777Z,1.00
2018-02-17T01:27:06.219Z,1.10
2018-02-17T01:29:33.807Z,1.00
2018-02-17T01:32:01.418Z,1.00
2018-02-17T01:34:29.017Z,1.00
2018-02-17T01:36:56.668Z,1.00
2018-02-17T01:39:24.251Z,1.00
2018-02-17T01:41:52.629Z,0.80
2018-02-17T01:44:21.634Z,0.80
2018-02-17T01:46:49.210Z,0.80
2018-02-17T01:49:17.544Z,0.80
2018-02-17T01:51:46.002Z,0.80
2018-02-17T01:54:13.687Z,0.80
2018-02-17T01:56:41.421Z,0.80
2018-02-17T01:59:08.986Z,0.80
2018-02-17T02:01:36.521Z,0.90
2018-02-17T02:04:04.135Z,1.00
2018-02-17T02:06:31.661Z,0.90
2018-02-17T02:08:59.251Z,0.90
2018-02-17T02:11:26.852Z,0.80
2018-02-17T02:13:55.171Z,0.90
2018-02-17T02:16:22.689Z,0.90
2018-02-17T02:18:51.032Z,0.90
2018-02-17T02:21:19.361Z,1.00
2018-02-17T02:23:46.897Z,0.90
2018-02-17T02:26:14.420Z,1.00
2018-02-17T02:28:42.037Z,1.00
2018-02-17T02:31:09.571Z,0.90
2018-02-17T02:33:37.168Z,0.90
2018-02-17T02:36:04.740Z,0.90
2018-02-17T02:38:32.300Z,0.90
2018-02-17T02:40:59.864Z,0.80
2018-02-17T02:43:27.430Z,0.90
2018-02-17T02:45:54.967Z,0.90
2018-02-17T02:48:22.525Z,0.80
2018-02-17T02:50:50.107Z,0.90
2018-02-17T02:53:17.668Z,0.80
2018-02-17T02:55:45.239Z,0.80
2018-02-17T02:58:12.868Z,0.80
2018-02-17T03:00:40.384Z,0.80
2018-02-17T03:03:07.964Z,0.80
2018-02-17T03:05:35.561Z,0.80
2018-02-17T03:08:03.129Z,0.70
2018-02-17T03:10:30.669Z,0.60
2018-02-17T03:12:59.047Z,0.60
2018-02-17T03:15:26.602Z,0.50
2018-02-17T03:17:54.136Z,0.50
2018-02-17T03:20:21.697Z,0.50
2018-02-17T03:22:49.255Z,0.60
2018-02-17T03:25:16.818Z,0.50
2018-02-17T03:27:45.909Z,0.50
2018-02-17T03:30:13.494Z,0.50
2018-02-17T03:32:41.060Z,0.50
2018-02-17T03:35:09.524Z,0.50
2018-02-17T03:37:37.090Z,0.50
2018-02-17T03:40:04.591Z,0.50
2018-02-17T03:42:32.154Z,0.50
2018-02-17T03:44:59.752Z,0.50
2018-02-17T03:47:27.372Z,0.50
2018-02-17T03:49:54.934Z,0.40
2018-02-17T03:52:22.489Z,0.30
2018-02-17T03:54:50.302Z,0.30
2018-02-17T03:57:17.860Z,0.30
2018-02-17T03:59:45.443Z,0.30
2018-02-17T04:02:13.024Z,0.40
2018-02-17T04:04:40.614Z,0.40
2018-02-17T04:07:08.161Z,0.40
2018-02-17T04:09:35.715Z,0.40
2018-02-17T04:12:03.266Z,0.40
2018-02-17T04:14:30.840Z,0.40
2018-02-17T04:16:58.382Z,0.50
2018-02-17T04:19:25.944Z,0.50
2018-02-17T04:21:53.538Z,0.50
2018-02-17T04:24:21.936Z,0.50
2018-02-17T04:26:49.703Z,0.50
2018-02-17T04:29:17.260Z,0.50
2018-02-17T04:31:44.850Z,0.30
2018-02-17T04:34:12.440Z,0.40
2018-02-17T04:36:40.036Z,0.30
2018-02-17T04:39:08.362Z,0.30
2018-02-17T04:41:37.884Z,0.30
2018-02-17T04:44:07.327Z,0.30
2018-02-17T04:49:42.275Z,0.10
2018-02-17T04:52:12.933Z,0.30
2018-02-17T04:54:46.193Z,0.20
2018-02-17T04:57:33.346Z,0.30
2018-02-17T05:00:04.455Z,0.30
2018-02-17T05:02:32.843Z,0.20
2018-02-17T05:05:11.249Z,0.30
2018-02-17T05:07:44.456Z,0.30
2018-02-17T05:10:12.101Z,0.30
2018-02-17T05:12:39.696Z,0.30
2018-02-17T05:15:12.485Z,0.30
2018-02-17T05:17:47.482Z,0.20
2018-02-17T05:20:20.749Z,0.10
2018-02-17T05:22:50.803Z,0.20
2018-02-17T05:25:20.326Z,0.20
2018-02-17T05:27:48.794Z,0.20
2018-02-17T05:30:18.522Z,0.20
2018-02-17T05:32:52.682Z,0.20
2018-02-17T05:35:22.855Z,0.10
2018-02-17T05:37:51.194Z,0.00
2018-02-17T05:40:20.334Z,0.00
2018-02-17T05:42:53.164Z,0.10
2018-02-17T05:45:20.814Z,0.10
2018-02-17T05:47:53.952Z,0.20
2018-02-17T05:50:22.254Z,0.20
2018-02-17T05:52:50.361Z,0.20
2018-02-17T05:55:17.945Z,0.20
2018-02-17T05:57:45.525Z,0.20
2018-02-17T06:00:13.854Z,0.20
2018-02-17T06:02:41.414Z,0.20
2018-02-17T06:05:09.029Z,0.20
2018-02-17T06:07:36.576Z,0.30
2018-02-17T06:10:04.914Z,0.30
2018-02-17T06:12:32.493Z,0.20
2018-02-17T06:15:00.074Z,0.30
2018-02-17T06:17:27.629Z,0.30
2018-02-17T06:19:55.200Z,0.20
2018-02-17T06:22:23.244Z,0.20
2018-02-17T06:24:50.806Z,0.20
2018-02-17T06:27:18.341Z,0.30
2018-02-17T06:29:45.921Z,0.30
2018-02-17T06:32:13.447Z,0.30
2018-02-17T06:34:41.010Z,0.30
2018-02-17T06:37:08.806Z,0.30
2018-02-17T06:39:36.369Z,0.30
2018-02-17T06:42:03.965Z,0.30
2018-02-17T06:44:31.481Z,0.30
2018-02-17T06:46:59.006Z,0.30
2018-02-17T06:49:26.561Z,0.40
2018-02-17T06:51:54.818Z,0.40
2018-02-17T06:54:23.082Z,0.50
2018-02-17T06:56:50.576Z,0.40
2018-02-17T06:59:19.294Z,0.50
2018-02-17T07:01:46.901Z,0.50
2018-02-17T07:04:15.233Z,0.50
2018-02-17T07:06:43.029Z,0.50
2018-02-17T07:09:11.374Z,0.60
2018-02-17T07:11:39.007Z,0.60
2018-02-17T07:14:06.553Z,0.60
2018-02-17T07:16:34.110Z,0.70
2018-02-17T07:19:01.666Z,0.50
2018-02-17T07:21:29.198Z,0.60
2018-02-17T07:23:56.886Z,0.60
2018-02-17T07:26:24.460Z,0.60
2018-02-17T07:28:52.019Z,0.50
2018-02-17T07:31:19.563Z,0.50
2018-02-17T07:33:47.108Z,0.60
2018-02-17T07:36:15.417Z,0.50
2018-02-17T07:38:42.972Z,0.50
2018-02-17T07:41:10.509Z,0.60
2018-02-17T07:43:39.784Z,0.60
2018-02-17T07:46:07.314Z,0.60
2018-02-17T07:48:34.921Z,0.70
2018-02-17T07:51:03.266Z,0.80
2018-02-17T07:53:31.144Z,0.80
2018-02-17T07:55:58.755Z,0.90
2018-02-17T07:58:26.344Z,1.00
2018-02-17T08:00:54.000Z,1.00
2018-02-17T08:03:21.553Z,1.10
2018-02-17T08:05:49.120Z,1.20
2018-02-17T08:08:16.715Z,1.20
2018-02-17T08:10:45.011Z,1.50
2018-02-17T08:13:12.618Z,1.40
2018-02-17T08:15:40.134Z,1.60
2018-02-17T08:18:07.687Z,1.70
2018-02-17T08:20:35.337Z,1.70
2018-02-17T08:23:03.672Z,1.90
2018-02-17T08:25:31.368Z,1.90
2018-02-17T08:27:58.931Z,2.00
2018-02-17T08:30:26.450Z,2.00
2018-02-17T08:32:54.024Z,2.10
2018-02-17T08:35:22.424Z,2.30
2018-02-17T08:37:49.994Z,2.30
2018-02-17T08:40:17.549Z,2.40
2018-02-17T08:42:45.099Z,2.40
2018-02-17T08:45:12.688Z,2.50
2018-02-17T08:47:40.241Z,2.60
2018-02-17T08:50:07.805Z,2.70
2018-02-17T08:52:35.388Z,2.80
2018-02-17T08:55:03.719Z,2.90
2018-02-17T08:57:32.299Z,2.90
2018-02-17T09:00:13.469Z,3.10
2018-02-17T09:02:42.069Z,3.10
2018-02-17T09:05:10.883Z,3.10
2018-02-17T09:07:39.542Z,3.10
2018-02-17T09:10:07.311Z,3.20
2018-02-17T09:12:35.220Z,3.30
2018-02-17T09:15:06.919Z,3.40
2018-02-17T09:26:32.835Z,3.80
2018-02-17T09:31:59.395Z,3.70
2018-02-17T09:34:40.432Z,3.70
2018-02-17T09:37:25.668Z,3.80
2018-02-17T11:12:11.905Z,3.90
2018-02-17T11:14:39.698Z,5.00
2018-02-17T11:17:07.535Z,5.00
2018-02-17T11:19:35.124Z,5.10
2018-02-17T11:22:02.801Z,5.20
2018-02-17T11:24:30.499Z,5.30
2018-02-17T11:26:58.849Z,5.30
2018-02-17T11:29:26.401Z,5.30
2018-02-17T11:31:54.040Z,5.30
2018-02-17T11:34:21.718Z,5.30
2018-02-17T11:36:49.288Z,5.30
2018-02-17T11:39:16.841Z,5.30
2018-02-17T11:41:44.363Z,5.20
2018-02-17T11:44:11.929Z,5.20
2018-02-17T11:46:39.524Z,5.20
2018-02-17T11:49:07.104Z,5.20
2018-02-17T11:51:34.664Z,5.20
2018-02-17T11:54:02.284Z,5.20
2018-02-17T11:56:29.849Z,5.30
2018-02-17T11:58:57.430Z,5.40
2018-02-17T12:01:24.994Z,5.40
2018-02-17T12:03:52.596Z,5.40
2018-02-17T12:06:20.126Z,5.50
2018-02-17T12:08:47.697Z,5.50
2018-02-17T12:11:15.997Z,5.80
2018-02-17T12:13:43.576Z,5.70
2018-02-17T12:16:11.119Z,5.90
2018-02-17T12:18:38.813Z,5.90
2018-02-17T12:21:07.108Z,6.00
2018-02-17T12:23:35.456Z,6.00
2018-02-17T12:26:03.024Z,6.00
2018-02-17T12:28:31.428Z,6.10
2018-02-17T12:30:58.988Z,6.20
2018-02-17T12:33:26.613Z,6.20
2018-02-17T12:35:54.282Z,6.30
2018-02-17T12:38:21.847Z,6.40
2018-02-17T12:40:49.476Z,6.40
2018-02-17T12:43:17.140Z,6.40
2018-02-17T12:45:44.702Z,6.20
2018-02-17T12:48:13.112Z,6.40
2018-02-17T12:50:40.749Z,6.40
2018-02-17T12:53:08.288Z,6.40
2018-02-17T12:55:35.800Z,6.40
2018-02-17T12:58:03.351Z,6.50
2018-02-17T13:00:31.806Z,6.70
2018-02-17T13:02:59.604Z,6.80
2018-02-17T13:05:27.261Z,6.90
2018-02-17T13:07:55.630Z,6.90
2018-02-17T13:10:23.202Z,6.90
2018-02-17T13:12:51.517Z,7.00
2018-02-17T13:15:19.064Z,7.00
2018-02-17T13:17:46.590Z,7.30
2018-02-17T13:20:14.169Z,7.30
2018-02-17T13:22:44.159Z,7.30
2018-02-17T13:25:12.664Z,7.30
2018-02-17T13:27:40.190Z,7.20
2018-02-17T13:30:07.758Z,7.30
2018-02-17T13:32:35.368Z,7.40
2018-02-17T13:35:02.896Z,7.30
2018-02-17T13:37:30.479Z,7.40
2018-02-17T13:39:58.220Z,7.40
2018-02-17T13:42:25.773Z,7.40
2018-02-17T13:44:53.353Z,7.40
2018-02-17T13:47:21.221Z,7.50
2018-02-17T13:49:48.779Z,7.40
2018-02-17T13:52:16.350Z,7.50
2018-02-17T13:54:44.027Z,7.70
2018-02-17T13:57:11.578Z,7.80
2018-02-17T13:59:39.204Z,7.80
2018-02-17T14:02:07.007Z,7.70
2018-02-17T14:04:35.378Z,7.50
2018-02-17T14:07:02.955Z,7.40
2018-02-17T14:09:31.315Z,7.40
2018-02-17T14:12:00.477Z,7.30
2018-02-17T14:14:28.034Z,7.30
2018-02-17T14:16:55.567Z,7.30
2018-02-17T14:19:23.138Z,7.30
2018-02-17T14:21:50.670Z,7.30
2018-02-17T14:24:18.257Z,7.30
2018-02-17T14:26:45.858Z,7.30
2018-02-17T14:29:13.479Z,7.20
2018-02-17T14:31:41.049Z,7.30
2018-02-17T14:34:08.632Z,7.40
2018-02-17T14:36:36.227Z,7.60
2018-02-17T14:39:03.796Z,7.50
2018-02-17T14:41:31.379Z,7.60
2018-02-17T14:43:59.005Z,7.40
2018-02-17T14:46:26.552Z,7.30
2018-02-17T14:48:54.160Z,7.20
2018-02-17T14:51:21.808Z,7.10
2018-02-17T14:53:49.350Z,7.00
2018-02-17T14:56:16.909Z,7.00
2018-02-17T14:58:44.648Z,7.10
2018-02-17T15:01:12.282Z,7.10
2018-02-17T15:03:39.900Z,7.10
2018-02-17T15:06:08.899Z,7.00
2018-02-17T15:08:37.243Z,7.00
2018-02-17T15:11:05.032Z,7.00
2018-02-17T15:13:33.182Z,6.90
2018-02-17T15:16:00.768Z,6.90
2018-02-17T15:18:29.290Z,6.80
2018-02-17T15:20:56.926Z,6.80
2018-02-17T15:23:24.513Z,6.70
2018-02-17T15:25:52.092Z,6.70
2018-02-17T15:28:19.788Z,6.70
2018-02-17T15:30:48.144Z,6.70
2018-02-17T15:33:15.733Z,6.70
2018-02-17T15:35:43.281Z,6.60
2018-02-17T15:38:11.653Z,6.60
2018-02-17T15:40:39.194Z,6.60
2018-02-17T15:43:06.854Z,6.70
2018-02-17T15:45:35.024Z,6.60
2018-02-17T15:48:02.595Z,6.60
2018-02-17T15:50:30.695Z,6.60
2018-02-17T15:53:00.244Z,6.50
2018-02-17T15:55:28.580Z,6.50
2018-02-17T15:57:56.129Z,6.50
2018-02-17T16:00:23.666Z,6.40
2018-02-17T16:02:51.215Z,6.30
2018-02-17T16:05:18.775Z,6.30
2018-02-17T16:07:46.309Z,6.30
2018-02-17T16:10:14.110Z,6.40
2018-02-17T16:12:42.525Z,6.20
2018-02-17T16:15:10.045Z,6.20
2018-02-17T16:17:37.611Z,6.20
2018-02-17T16:20:05.190Z,6.20
2018-02-17T16:22:32.745Z,6.20
2018-02-17T16:25:01.053Z,6.10
2018-02-17T16:27:28.671Z,6.10
2018-02-17T16:29:56.240Z,6.20
2018-02-17T16:32:24.537Z,6.10
2018-02-17T16:34:52.150Z,6.10
2018-02-17T16:37:19.703Z,6.10
2018-02-17T16:39:47.367Z,6.00
2018-02-17T16:42:14.990Z,6.00
2018-02-17T16:44:43.543Z,5.90
2018-02-17T16:47:11.853Z,5.70
2018-02-17T16:49:39.381Z,5.70
2018-02-17T16:52:07.391Z,5.60
2018-02-17T16:54:34.923Z,5.60
2018-02-17T16:57:03.241Z,5.40
2018-02-17T16:59:30.820Z,5.30
2018-02-17T17:01:58.355Z,5.20
2018-02-17T17:04:25.931Z,5.10
2018-02-17T17:06:53.491Z,5.00
2018-02-17T17:11:56.442Z,5.00
2018-02-17T17:14:24.748Z,4.90
2018-02-17T17:16:52.311Z,4.90
2018-02-17T17:19:19.884Z,4.90
2018-02-17T17:21:47.470Z,4.90
2018-02-17T17:24:14.997Z,4.90
2018-02-17T17:26:42.591Z,4.90
2018-02-17T17:29:10.136Z,4.90
2018-02-17T17:31:37.760Z,4.70
2018-02-17T17:34:05.356Z,4.60
2018-02-17T17:36:32.895Z,4.50
2018-02-17T17:39:00.486Z,4.50
2018-02-17T17:41:28.764Z,4.50
2018-02-17T17:43:57.108Z,4.40
2018-02-17T17:46:24.722Z,4.40
2018-02-17T17:48:52.316Z,4.30
2018-02-17T17:51:19.899Z,4.30
2018-02-17T17:53:48.208Z,4.20
2018-02-17T17:56:15.765Z,4.20
2018-02-17T17:58:43.389Z,4.30
2018-02-17T18:01:11.241Z,4.20
2018-02-17T18:03:38.841Z,4.10
2018-02-17T18:06:06.400Z,4.10
2018-02-17T18:08:34.035Z,4.00
2018-02-17T18:11:01.566Z,3.90
2018-02-17T18:13:29.137Z,3.90
2018-02-17T18:15:56.652Z,3.90
2018-02-17T18:18:24.956Z,3.80
2018-02-17T18:20:52.526Z,3.80
2018-02-17T18:23:20.086Z,3.80
2018-02-17T18:25:47.638Z,3.80
2018-02-17T18:28:15.249Z,3.80
2018-02-17T18:30:42.816Z,3.70
2018-02-17T18:33:10.373Z,3.60
2018-02-17T18:35:37.917Z,3.50
2018-02-17T18:38:05.486Z,3.50
2018-02-17T18:40:33.046Z,3.50
2018-02-17T18:43:00.667Z,3.40
2018-02-17T18:45:28.350Z,3.30
2018-02-17T18:47:56.694Z,3.30
2018-02-17T18:50:24.261Z,3.30
2018-02-17T18:52:51.917Z,3.30
2018-02-17T18:55:19.483Z,3.20
2018-02-17T18:57:47.089Z,3.10
2018-02-17T19:00:14.643Z,3.00
2018-02-17T19:02:42.273Z,3.00
2018-02-17T19:05:09.815Z,3.10
2018-02-17T19:07:37.361Z,3.10
2018-02-17T19:10:05.141Z,3.00
2018-02-17T19:12:32.765Z,3.00
2018-02-17T19:15:00.366Z,2.90
2018-02-17T19:17:28.008Z,2.90
2018-02-17T19:19:55.568Z,2.90
2018-02-17T19:22:23.523Z,3.00
2018-02-17T19:24:51.835Z,2.90
2018-02-17T19:27:19.494Z,2.90
2018-02-17T19:29:47.104Z,2.90
2018-02-17T19:32:14.839Z,2.90
2018-02-17T19:34:42.407Z,2.80
2018-02-17T19:37:10.152Z,2.80
2018-02-17T19:39:37.722Z,2.80
2018-02-17T19:42:05.290Z,2.80
2018-02-17T19:44:32.914Z,2.70
2018-02-17T19:47:00.508Z,2.60
2018-02-17T19:49:28.057Z,2.60
2018-02-17T19:51:55.646Z,2.60
2018-02-17T19:54:23.202Z,2.60
2018-02-17T19:56:50.834Z,2.60
2018-02-17T19:59:18.418Z,2.50
2018-02-17T20:01:46.592Z,2.50
2018-02-17T20:04:14.165Z,2.40
2018-02-17T20:06:42.234Z,2.40
2018-02-17T20:09:09.802Z,2.40
2018-02-17T20:11:37.309Z,2.40
2018-02-17T20:14:04.916Z,2.40
2018-02-17T20:16:32.451Z,2.40
2018-02-17T20:19:00.040Z,2.40
2018-02-17T20:21:27.602Z,2.30
2018-02-17T20:23:55.267Z,2.30
2018-02-17T20:26:23.547Z,2.20
2018-02-17T20:28:52.725Z,2.20
2018-02-17T20:31:20.267Z,2.20
2018-02-17T20:33:47.821Z,2.10
2018-02-17T20:36:15.353Z,2.20
2018-02-17T20:38:43.764Z,2.00
2018-02-17T20:41:11.322Z,2.00
2018-02-17T20:43:38.962Z,2.00
2018-02-17T20:46:06.539Z,1.90
2018-02-17T20:48:34.191Z,1.90
2018-02-17T20:51:01.798Z,2.00
2018-02-17T20:53:29.440Z,2.00
2018-02-17T20:55:56.996Z,2.00
2018-02-17T20:58:25.543Z,2.00
2018-02-17T21:00:53.173Z,2.00
2018-02-17T21:03:21.537Z,1.80
2018-02-17T21:05:49.099Z,1.80
2018-02-17T21:08:17.494Z,1.80
2018-02-17T21:10:45.838Z,1.90
2018-02-17T21:13:13.425Z,1.80
2018-02-17T21:15:41.755Z,1.80
2018-02-17T21:18:09.297Z,1.80
2018-02-17T21:20:36.840Z,1.80
2018-02-17T21:23:04.470Z,1.80
2018-02-17T21:25:32.864Z,1.70
2018-02-17T21:28:01.260Z,1.70
2018-02-17T21:30:28.867Z,1.70
2018-02-17T21:32:56.582Z,1.60
2018-02-17T21:35:24.144Z,1.50
2018-02-17T21:37:52.467Z,1.60
2018-02-17T21:40:20.295Z,1.50
2018-02-17T21:42:47.889Z,1.50
2018-02-17T21:45:17.116Z,1.50
2018-02-17T21:47:44.673Z,1.50
2018-02-17T21:50:12.197Z,1.50
2018-02-17T21:52:39.836Z,1.50
2018-02-17T21:55:07.404Z,1.50
2018-02-17T21:57:34.986Z,1.40
2018-02-17T22:00:02.549Z,1.40
2018-02-17T22:02:30.122Z,1.40
2018-02-17T22:04:57.679Z,1.40
2018-02-17T22:07:26.097Z,1.50
2018-02-17T22:09:54.432Z,1.40
2018-02-17T22:12:21.982Z,1.40
2018-02-17T22:14:49.680Z,1.40
2018-02-17T22:17:17.891Z,1.40
2018-02-17T22:19:45.436Z,1.40
2018-02-17T22:22:13.092Z,1.40
2018-02-17T22:24:40.755Z,1.30
2018-02-17T22:27:08.373Z,1.40
2018-02-17T22:29:37.286Z,1.30
2018-02-17T22:32:04.874Z,1.30
2018-02-17T22:34:32.408Z,1.30
2018-02-17T22:36:59.928Z,1.20
2018-02-17T22:39:27.452Z,1.20
2018-02-17T22:41:55.132Z,1.20
2018-02-17T22:44:22.942Z,1.10
2018-02-17T22:46:51.529Z,1.10
2018-02-17T22:49:19.126Z,1.10
2018-02-17T22:51:46.670Z,1.10
2018-02-17T22:54:14.299Z,1.10
2018-02-17T22:56:42.749Z,1.00
2018-02-17T22:59:10.328Z,1.00
2018-02-17T23:01:38.553Z,1.00
2018-02-17T23:04:06.534Z,1.00
2018-02-17T23:06:34.482Z,1.00
2018-02-17T23:09:03.410Z,1.00
2018-02-17T23:11:31.204Z,1.00
2018-02-17T23:13:59.157Z,0.90
2018-02-17T23:16:27.106Z,0.80
2018-02-17T23:18:56.096Z,0.80
2018-02-17T23:21:24.079Z,0.90
2018-02-17T23:23:52.167Z,0.90
2018-02-17T23:26:19.885Z,0.80
2018-02-17T23:28:47.829Z,0.80
2018-02-17T23:31:15.685Z,0.70
2018-02-17T23:33:43.744Z,0.70
2018-02-17T23:36:11.568Z,0.60
2018-02-17T23:38:39.259Z,0.60
2018-02-17T23:41:07.576Z,0.60
2018-02-17T23:43:35.421Z,0.60
2018-02-17T23:46:02.978Z,0.60
2018-02-17T23:48:31.368Z,0.50
2018-02-17T23:50:59.031Z,0.40
2018-02-17T23:53:26.652Z,0.50
2018-02-17T23:55:54.955Z,0.50
2018-02-17T23:58:23.406Z,0.50
